Time;durP1;ratioP1;P1;durP2;ratioP2;P2;SDS_P1;SDS_P2;PMS_P1;PMS_P2;Temp;Humidity;BMP_temperature;BMP_pressure;BME280_temperature;BME280_humidity;BME280_pressure;Samples;Min_cycle;Max_cycle;Signal;HPM_P1;HPM_P2
2022/04/14 02:01:55;;;;;;;;;;;;;;;10.74;100.00;98671.16;5133579;27;19956;-69
2022/04/14 02:04:23;;;;;;;;;;;;;;;10.67;100.00;98676.69;5101422;28;19972;-69
2022/04/14 02:06:50;;;;;;;;;;;;;;;10.54;100.00;98676.22;5104252;28;19968;-69
2022/04/14 02:09:17;;;;;;;;;;;;;;;10.43;100.00;98674.53;5096272;28;20372;-69
2022/04/14 02:11:45;;;;;;;;;;;;;;;10.32;100.00;98690.44;5097266;28;19956;-69
2022/04/14 02:14:12;;;;;;;;;;;;;;;10.17;100.00;98683.09;5109570;28;19975;-69
2022/04/14 02:16:39;;;;;;;;;;;;;;;10.02;100.00;98684.94;5106384;28;19957;-69
2022/04/14 02:19:07;;;;;;;;;;;;;;;9.95;100.00;98684.06;5114492;28;19953;-69
2022/04/14 02:21:34;;;;;;;;;;;;;;;9.89;100.00;98678.00;5105727;28;19953;-69
2022/04/14 02:24:01;;;;;;;;;;;;;;;9.85;100.00;98679.97;5109430;28;20271;-68
2022/04/14 02:26:28;;;;;;;;;;;;;;;9.82;100.00;98678.75;5095572;28;19976;-69
2022/04/14 02:28:56;;;;;;;;;;;;;;;9.82;100.00;98675.97;5100145;28;19950;-69
2022/04/14 02:31:23;;;;;;;;;;;;;;;9.83;100.00;98679.53;5113192;28;19948;-69
2022/04/14 02:33:50;;;;;;;;;;;;;;;9.83;100.00;98671.97;5079747;28;19984;-68
2022/04/14 02:36:18;;;;;;;;;;;;;;;9.84;100.00;98679.16;5096984;28;20339;-69
2022/04/14 02:38:45;;;;;;;;;;;;;;;9.84;100.00;98669.97;5095042;28;19966;-69
2022/04/14 02:41:12;;;;;;;;;;;;;;;9.83;100.00;98674.75;5095028;28;19953;-68
2022/04/14 02:43:39;;;;;;;;;;;;;;;9.86;100.00;98668.41;5095390;28;19953;-69
2022/04/14 02:46:07;;;;;;;;;;;;;;;10.00;100.00;98672.53;5096388;28;19948;-68
2022/04/14 02:48:34;;;;;;;;;;;;;;;10.10;100.00;98675.41;5096157;28;20379;-68
2022/04/14 02:51:01;;;;;;;;;;;;;;;10.08;100.00;98669.41;5095098;28;20336;-69
2022/04/14 02:53:29;;;;;;;;;;;;;;;10.07;100.00;98673.41;5095817;28;19943;-69
2022/04/14 02:55:56;;;;;;;;;;;;;;;10.08;100.00;98666.63;5097366;28;20353;-69
2022/04/14 02:58:23;;;;;;;;;;;;;;;10.12;100.00;98670.28;5115563;28;19948;-69
2022/04/14 03:00:51;;;;;;;;;;;;;;;10.18;100.00;98667.94;5097957;28;19952;-68
2022/04/14 03:03:19;;;;;;;;;;;;;;;10.21;100.00;98670.75;5096519;28;19968;-69
2022/04/14 03:05:46;;;;;;;;;;;;;;;10.21;100.00;98665.16;5110346;28;19946;-69
2022/04/14 03:08:14;;;;;;;;;;;;;;;10.24;100.00;98660.81;5115197;28;19975;-69
2022/04/14 03:10:41;;;;;;;;;;;;;;;10.25;100.00;98665.19;5096251;28;20257;-68
2022/04/14 03:13:08;;;;;;;;;;;;;;;10.25;100.00;98660.41;5113575;28;19946;-69
2022/04/14 03:15:35;;;;;;;;;;;;;;;10.27;100.00;98662.84;5115235;28;20345;-69
2022/04/14 03:18:03;;;;;;;;;;;;;;;10.35;100.00;98656.91;5113562;28;19948;-69
2022/04/14 03:20:30;;;;;;;;;;;;;;;10.43;100.00;98669.75;5098542;28;19956;-68
2022/04/14 03:22:58;;;;;;;;;;;;;;;10.50;100.00;98666.19;5095947;28;19949;-69
2022/04/14 03:25:26;;;;;;;;;;;;;;;10.55;100.00;98663.84;5106800;28;19956;-69
2022/04/14 03:27:53;;;;;;;;;;;;;;;10.60;100.00;98671.06;5094899;28;19967;-69
2022/04/14 03:30:20;;;;;;;;;;;;;;;10.63;100.00;98670.28;5107636;28;19952;-69
2022/04/14 03:32:47;;;;;;;;;;;;;;;10.65;100.00;98670.69;5098229;28;19955;-69
2022/04/14 03:35:15;;;;;;;;;;;;;;;10.64;100.00;98665.50;5107139;28;19954;-69
2022/04/14 03:37:43;;;;;;;;;;;;;;;10.59;100.00;98669.44;5118891;28;19953;-69
2022/04/14 03:40:11;;;;;;;;;;;;;;;10.53;100.00;98673.81;5118471;28;19949;-69
2022/04/14 03:42:38;;;;;;;;;;;;;;;10.50;100.00;98669.78;5119018;28;19956;-69
2022/04/14 03:45:06;;;;;;;;;;;;;;;10.49;100.00;98661.78;5102625;28;20243;-68
2022/04/14 03:47:34;;;;;;;;;;;;;;;10.48;100.00;98671.38;5117108;28;19962;-68
2022/04/14 03:50:01;;;;;;;;;;;;;;;10.44;100.00;98674.13;5115721;28;19952;-69
2022/04/14 03:52:29;;;;;;;;;;;;;;;10.40;100.00;98658.53;5118924;28;19948;-69
2022/04/14 03:54:57;;;;;;;;;;;;;;;10.44;100.00;98667.75;5114101;28;20369;-68
2022/04/14 03:57:24;;;;;;;;;;;;;;;10.43;100.00;98678.13;5111861;28;19951;-69
2022/04/14 03:59:52;;;;;;;;;;;;;;;10.48;100.00;98672.19;5117187;28;19954;-68
2022/04/14 04:02:19;;;;;;;;;;;;;;;10.46;100.00;98670.97;5116734;28;20253;-68
2022/04/14 04:04:46;;;;;;;;;;;;;;;10.45;100.00;98663.75;5113566;28;19946;-69
2022/04/14 04:07:14;;;;;;;;;;;;;;;10.43;100.00;98664.16;5111156;28;19972;-69
2022/04/14 04:09:41;;;;;;;;;;;;;;;10.47;100.00;98664.16;5109609;28;19953;-68
2022/04/14 04:12:09;;;;;;;;;;;;;;;10.50;100.00;98663.41;5102869;28;19955;-69
2022/04/14 04:14:36;;;;;;;;;;;;;;;10.53;100.00;98663.44;5114003;28;19958;-69
2022/04/14 04:17:04;;;;;;;;;;;;;;;10.55;100.00;98665.84;5100941;28;19948;-69
2022/04/14 04:19:32;;;;;;;;;;;;;;;10.57;100.00;98664.25;5098327;28;20244;-69
2022/04/14 04:21:59;;;;;;;;;;;;;;;10.54;100.00;98669.81;5112964;28;19946;-68
2022/04/14 04:24:26;;;;;;;;;;;;;;;10.55;100.00;98665.84;5114729;28;19947;-69
2022/04/14 04:26:54;;;;;;;;;;;;;;;10.53;100.00;98668.22;5102919;28;19950;-69
2022/04/14 04:29:21;;;;;;;;;;;;;;;10.51;100.00;98679.00;5097930;28;19946;-69
2022/04/14 04:31:49;;;;;;;;;;;;;;;10.48;100.00;98671.38;5097742;28;19947;-68
2022/04/14 04:34:17;;;;;;;;;;;;;;;10.43;100.00;98680.94;5097817;28;20329;-68
2022/04/14 04:36:44;;;;;;;;;;;;;;;10.32;100.00;98676.44;5101951;28;19952;-69
2022/04/14 04:39:11;;;;;;;;;;;;;;;10.13;100.00;98676.66;5097982;28;19952;-69
2022/04/14 04:41:39;;;;;;;;;;;;;;;9.93;100.00;98682.44;5085066;28;19960;-69
2022/04/14 04:44:06;;;;;;;;;;;;;;;9.88;100.00;98677.19;5107251;28;19973;-69
2022/04/14 04:46:33;;;;;;;;;;;;;;;9.89;100.00;98684.41;5108441;28;19948;-69
2022/04/14 04:49:01;;;;;;;;;;;;;;;9.95;100.00;98676.50;5096968;28;20322;-69
2022/04/14 04:51:28;;;;;;;;;;;;;;;10.00;100.00;98678.91;5103473;28;19949;-69
2022/04/14 04:53:55;;;;;;;;;;;;;;;10.12;100.00;98675.06;5109253;28;19951;-69
2022/04/14 04:56:23;;;;;;;;;;;;;;;10.13;100.00;98688.66;5110523;28;19957;-69
2022/04/14 04:58:50;;;;;;;;;;;;;;;10.14;100.00;98681.88;5096565;28;20587;-69
2022/04/14 05:01:17;;;;;;;;;;;;;;;10.19;100.00;98683.50;5096235;28;19957;-69
2022/04/14 05:03:44;;;;;;;;;;;;;;;10.27;100.00;98688.75;5099162;28;19975;-69
2022/04/14 05:06:12;;;;;;;;;;;;;;;10.43;100.00;98686.53;5110229;28;20333;-69
2022/04/14 05:08:39;;;;;;;;;;;;;;;10.59;100.00;98688.25;5104533;28;19966;-69
2022/04/14 05:11:07;;;;;;;;;;;;;;;10.97;100.00;98694.09;5110633;28;19946;-68
2022/04/14 05:13:35;;;;;;;;;;;;;;;11.38;100.00;98691.88;5115815;28;19948;-69
2022/04/14 05:16:04;;;;;;;;;;;;;;;11.97;100.00;98698.09;5097453;28;19956;-69
2022/04/14 05:18:32;;;;;;;;;;;;;;;12.36;100.00;98701.75;5096359;28;19948;-69
2022/04/14 05:20:59;;;;;;;;;;;;;;;12.94;100.00;98704.09;5103331;28;19945;-69
2022/04/14 05:23:26;;;;;;;;;;;;;;;13.29;100.00;98704.06;5110271;28;19985;-69
2022/04/14 05:25:56;;;;;;;;;;;;;;;13.73;100.00;98700.66;5104079;28;19947;-69
2022/04/14 05:28:23;;;;;;;;;;;;;;;14.36;100.00;98710.75;5114321;28;19971;-69
2022/04/14 05:30:50;;;;;;;;;;;;;;;15.06;97.64;98712.94;5116514;28;19954;-69
2022/04/14 05:33:18;;;;;;;;;;;;;;;15.99;89.69;98713.47;5116196;28;19949;-69
2022/04/14 05:35:45;;;;;;;;;;;;;;;16.90;84.84;98714.09;5116529;28;19955;-69
2022/04/14 05:38:12;;;;;;;;;;;;;;;17.79;75.33;98718.88;5116993;28;20314;-69
2022/04/14 05:40:45;;;;;;;;;;;;;;;18.44;71.72;98719.84;5116955;28;19954;-69
2022/04/14 05:43:18;;;;;;;;;;;;;;;19.08;64.36;98716.25;5116569;28;19952;-69
2022/04/14 05:45:48;;;;;;;;;;;;;;;19.89;60.66;98716.06;5114893;28;20238;-69
2022/04/14 05:48:15;;;;;;;;;;;;;;;20.59;57.01;98724.47;5114863;28;19962;-69
2022/04/14 05:50:44;;;;;;;;;;;;;;;21.06;54.43;98716.81;5110931;28;19949;-69
2022/04/14 05:53:11;;;;;;;;;;;;;;;22.02;49.88;98714.19;5107370;28;19962;-69
2022/04/14 05:55:42;;;;;;;;;;;;;;;22.52;46.78;98718.75;5095778;28;19947;-69
2022/04/14 05:58:10;;;;;;;;;;;;;;;23.26;43.90;98721.38;5096480;28;19951;-69
2022/04/14 06:00:37;;;;;;;;;;;;;;;23.77;41.73;98724.47;5106359;28;19960;-69
2022/04/14 06:03:04;;;;;;;;;;;;;;;23.84;41.44;98719.19;5095418;28;19974;-69
2022/04/14 06:05:32;;;;;;;;;;;;;;;23.49;41.71;98717.94;5103766;28;19960;-69
2022/04/14 06:08:00;;;;;;;;;;;;;;;23.98;40.65;98714.91;5095209;28;20366;-67
2022/04/14 06:10:28;;;;;;;;;;;;;;;24.35;39.79;98718.50;5097866;28;20333;-67
2022/04/14 06:12:55;;;;;;;;;;;;;;;24.36;38.95;98725.78;5107830;28;19953;-67
2022/04/14 06:15:26;;;;;;;;;;;;;;;25.28;38.46;98714.28;5104014;28;20432;-67
2022/04/14 06:17:54;;;;;;;;;;;;;;;25.42;36.87;98721.34;5096140;28;19946;-67
2022/04/14 06:20:21;;;;;;;;;;;;;;;25.21;36.79;98720.34;5095342;28;19951;-67
2022/04/14 06:22:48;;;;;;;;;;;;;;;24.20;38.16;98717.59;5095199;28;19953;-69
2022/04/14 06:25:22;;;;;;;;;;;;;;;23.45;39.34;98718.09;5094957;28;19963;-69
2022/04/14 06:27:50;;;;;;;;;;;;;;;21.92;42.71;98719.03;5095613;28;19975;-69
2022/04/14 06:30:18;;;;;;;;;;;;;;;21.75;45.08;98720.44;5095919;28;19957;-68
2022/04/14 06:32:55;;;;;;;;;;;;;;;20.91;49.03;98712.84;5095048;28;20380;-69
2022/04/14 06:35:22;;;;;;;;;;;;;;;20.51;52.30;98726.75;5095624;28;20322;-69
2022/04/14 06:37:50;;;;;;;;;;;;;;;20.12;52.72;98721.44;5095206;28;19958;-69
2022/04/14 06:40:17;;;;;;;;;;;;;;;19.95;53.92;98722.78;5095784;28;19948;-69
2022/04/14 06:42:56;;;;;;;;;;;;;;;19.79;56.25;98720.78;5095659;28;19948;-69
2022/04/14 06:45:24;;;;;;;;;;;;;;;19.38;56.64;98721.56;5095327;28;19949;-69
2022/04/14 06:47:52;;;;;;;;;;;;;;;19.11;58.30;98718.22;5095473;28;19949;-69
2022/04/14 06:50:19;;;;;;;;;;;;;;;18.98;61.59;98723.00;5094742;28;19946;-69
2022/04/14 06:52:46;;;;;;;;;;;;;;;18.94;62.31;98730.81;5095919;28;20373;-69
2022/04/14 06:55:15;;;;;;;;;;;;;;;18.86;60.71;98726.53;5094966;28;19952;-69
2022/04/14 06:57:43;;;;;;;;;;;;;;;18.35;63.43;98730.97;5077476;28;19947;-69
2022/04/14 07:00:10;;;;;;;;;;;;;;;18.19;64.67;98728.13;5095201;28;19960;-69
2022/04/14 07:02:44;;;;;;;;;;;;;;;17.96;67.23;98734.69;5095416;28;19972;-69
2022/04/14 07:05:12;;;;;;;;;;;;;;;17.86;68.83;98737.72;5095700;28;19938;-69
2022/04/14 07:07:39;;;;;;;;;;;;;;;17.81;72.56;98738.25;5098347;28;19950;-69
2022/04/14 07:10:06;;;;;;;;;;;;;;;17.64;75.55;98740.19;5098710;28;19967;-69
2022/04/14 07:12:35;;;;;;;;;;;;;;;17.47;78.79;98736.47;5099195;28;19950;-69
2022/04/14 07:15:02;;;;;;;;;;;;;;;17.19;82.91;98736.97;5099311;28;19951;-69
2022/04/14 07:17:30;;;;;;;;;;;;;;;17.09;82.06;98738.00;5099272;28;19943;-69
2022/04/14 07:19:58;;;;;;;;;;;;;;;17.19;81.67;98741.84;5099057;28;20228;-69
2022/04/14 07:22:25;;;;;;;;;;;;;;;17.17;82.36;98738.63;5099037;28;19952;-69
2022/04/14 07:24:53;;;;;;;;;;;;;;;17.13;79.12;98738.72;5098518;28;19950;-69
2022/04/14 07:27:21;;;;;;;;;;;;;;;17.22;78.46;98738.94;5099169;28;19957;-69
2022/04/14 07:29:48;;;;;;;;;;;;;;;17.22;77.08;98740.97;5098208;28;19969;-69
2022/04/14 07:32:15;;;;;;;;;;;;;;;17.22;76.73;98741.78;5080727;28;20041;-69
2022/04/14 07:34:43;;;;;;;;;;;;;;;17.25;75.74;98748.59;5098937;28;19948;-69
2022/04/14 07:37:11;;;;;;;;;;;;;;;17.28;73.03;98739.25;5080548;28;19950;-69
2022/04/14 07:39:38;;;;;;;;;;;;;;;17.23;73.65;98746.22;5098252;28;19959;-69
2022/04/14 07:42:09;;;;;;;;;;;;;;;17.19;76.08;98748.28;5098485;28;20399;-69
2022/04/14 07:44:36;;;;;;;;;;;;;;;17.35;73.43;98739.94;5080854;28;19960;-69
2022/04/14 07:47:03;;;;;;;;;;;;;;;17.29;72.87;98746.53;5098343;28;19948;-69
2022/04/14 07:49:32;;;;;;;;;;;;;;;17.42;72.08;98739.00;5098194;28;19969;-69
2022/04/14 07:51:59;;;;;;;;;;;;;;;17.65;69.90;98742.59;5098057;28;19960;-69
2022/04/14 07:54:26;;;;;;;;;;;;;;;17.67;69.85;98733.69;5098411;28;19952;-69
2022/04/14 07:56:53;;;;;;;;;;;;;;;17.66;70.54;98744.19;5097685;28;19948;-69
2022/04/14 07:59:21;;;;;;;;;;;;;;;17.69;69.36;98737.66;5098352;28;19953;-69
2022/04/14 08:01:48;;;;;;;;;;;;;;;17.73;75.69;98742.47;5098173;28;19946;-69
2022/04/14 08:04:15;;;;;;;;;;;;;;;17.83;71.28;98742.22;5098019;28;19999;-69
2022/04/14 08:06:43;;;;;;;;;;;;;;;17.92;70.94;98736.00;5097933;28;19946;-69
2022/04/14 08:09:10;;;;;;;;;;;;;;;18.00;68.63;98746.72;5097787;28;19987;-69
2022/04/14 08:11:37;;;;;;;;;;;;;;;17.89;69.58;98751.81;5097743;28;19948;-69
2022/04/14 08:14:04;;;;;;;;;;;;;;;17.71;72.04;98749.34;5097915;28;19984;-69
2022/04/14 08:16:32;;;;;;;;;;;;;;;17.68;71.82;98752.22;5115524;28;19953;-69
2022/04/14 08:18:59;;;;;;;;;;;;;;;17.61;73.18;98752.38;5117109;28;19950;-69
2022/04/14 08:21:26;;;;;;;;;;;;;;;17.57;76.21;98746.81;5117897;28;20253;-69
2022/04/14 08:23:53;;;;;;;;;;;;;;;17.70;74.76;98752.63;5117281;28;19953;-69
2022/04/14 08:26:21;;;;;;;;;;;;;;;17.68;73.07;98749.41;5118416;28;19963;-69
2022/04/14 08:28:48;;;;;;;;;;;;;;;17.62;76.66;98762.47;5117697;28;20258;-69
2022/04/14 08:31:16;;;;;;;;;;;;;;;17.76;77.16;98759.34;5118352;28;20321;-69
2022/04/14 08:33:44;;;;;;;;;;;;;;;17.64;73.92;98746.66;5117418;28;19947;-68
2022/04/14 08:36:13;;;;;;;;;;;;;;;17.52;74.16;98757.81;5114639;28;19947;-69
2022/04/14 08:38:47;;;;;;;;;;;;;;;17.65;80.80;98753.91;5097218;28;19956;-69
2022/04/14 08:41:14;;;;;;;;;;;;;;;17.68;79.19;98761.50;5097635;28;19955;-69
2022/04/14 08:43:51;;;;;;;;;;;;;;;17.73;81.98;98749.69;5097524;28;19944;-69
2022/04/14 08:46:19;;;;;;;;;;;;;;;17.87;78.94;98756.31;5097717;28;19947;-69
2022/04/14 08:48:52;;;;;;;;;;;;;;;17.93;76.14;98761.00;5097139;28;20399;-68
2022/04/14 08:51:20;;;;;;;;;;;;;;;17.95;73.07;98763.44;5097088;28;20616;-69
2022/04/14 08:53:48;;;;;;;;;;;;;;;17.93;73.78;98755.34;5097314;28;20332;-69
2022/04/14 08:56:18;;;;;;;;;;;;;;;17.92;71.45;98755.81;5097388;28;19978;-69
2022/04/14 08:58:45;;;;;;;;;;;;;;;18.04;69.39;98760.81;5078998;28;19953;-69
2022/04/14 09:01:14;;;;;;;;;;;;;;;18.06;76.38;98761.97;5096885;28;19948;-69
2022/04/14 09:03:52;;;;;;;;;;;;;;;17.88;77.26;98760.72;5079498;28;19978;-68
2022/04/14 09:06:20;;;;;;;;;;;;;;;17.84;76.88;98757.19;5096861;28;19955;-68
2022/04/14 09:08:48;;;;;;;;;;;;;;;17.60;70.55;98747.97;5097066;28;19956;-69
2022/04/14 09:11:16;;;;;;;;;;;;;;;17.71;73.23;98748.53;5097157;28;19947;-69
2022/04/14 09:13:45;;;;;;;;;;;;;;;17.81;71.48;98755.22;5096364;28;19955;-69
2022/04/14 09:16:13;;;;;;;;;;;;;;;17.80;75.22;98743.13;5096937;28;19944;-69
2022/04/14 09:18:40;;;;;;;;;;;;;;;17.95;72.77;98749.28;5097012;28;19942;-69
2022/04/14 09:21:08;;;;;;;;;;;;;;;17.90;77.68;98744.91;5096826;28;19950;-69
2022/04/14 09:23:36;;;;;;;;;;;;;;;17.96;74.24;98750.84;5097052;28;19951;-69
2022/04/14 09:26:04;;;;;;;;;;;;;;;18.11;70.15;98752.97;5096531;28;19953;-69
2022/04/14 09:28:32;;;;;;;;;;;;;;;18.11;70.14;98755.78;5096278;28;19966;-68
2022/04/14 09:31:00;;;;;;;;;;;;;;;18.17;69.64;98758.88;5095755;28;19971;-68
2022/04/14 09:33:27;;;;;;;;;;;;;;;18.17;67.40;98761.72;5096300;28;20246;-69
2022/04/14 09:36:07;;;;;;;;;;;;;;;18.13;67.33;98753.31;5096323;28;19950;-69
2022/04/14 09:38:52;;;;;;;;;;;;;;;18.07;67.90;98760.72;5095720;28;20242;-69
2022/04/14 09:41:29;;;;;;;;;;;;;;;18.20;67.04;98750.31;5096885;28;19959;-69
2022/04/14 09:43:57;;;;;;;;;;;;;;;18.41;67.19;98748.25;5096484;28;19948;-69
2022/04/14 09:46:25;;;;;;;;;;;;;;;18.43;64.33;98746.59;5096684;28;19949;-68
2022/04/14 09:49:01;;;;;;;;;;;;;;;18.39;65.75;98746.66;5096134;28;19950;-69
2022/04/14 09:51:28;;;;;;;;;;;;;;;18.51;65.37;98739.53;5096210;28;19948;-68
2022/04/14 09:54:02;;;;;;;;;;;;;;;18.63;64.47;98738.84;5096234;28;20368;-69
2022/04/14 09:56:48;;;;;;;;;;;;;;;18.60;60.46;98738.94;5095700;28;19983;-68
2022/04/14 09:59:17;;;;;;;;;;;;;;;18.71;62.47;98737.44;5096126;28;19949;-69
2022/04/14 10:01:45;;;;;;;;;;;;;;;18.64;55.69;98740.44;5096066;28;20525;-68
2022/04/14 10:04:32;;;;;;;;;;;;;;;18.69;58.86;98739.09;5096019;28;19977;-69
2022/04/14 10:07:05;;;;;;;;;;;;;;;18.64;56.13;98739.63;5096213;28;20222;-69
2022/04/14 10:09:35;;;;;;;;;;;;;;;18.61;63.28;98741.31;5096095;28;19966;-69
2022/04/14 10:12:03;;;;;;;;;;;;;;;18.53;64.22;98739.91;5095900;28;19955;-69
2022/04/14 10:14:30;;;;;;;;;;;;;;;18.59;63.42;98729.63;5095914;28;19953;-69
2022/04/14 10:17:02;;;;;;;;;;;;;;;18.61;59.19;98734.88;5096126;28;19957;-69
2022/04/14 10:19:31;;;;;;;;;;;;;;;18.72;56.74;98732.56;5096297;28;19950;-69
2022/04/14 10:21:59;;;;;;;;;;;;;;;18.79;59.91;98729.56;5095418;28;19950;-68
2022/04/14 10:24:27;;;;;;;;;;;;;;;18.72;56.50;98727.69;5104799;28;19980;-69
2022/04/14 10:26:54;;;;;;;;;;;;;;;18.48;56.25;98726.28;5115430;28;19953;-68
2022/04/14 10:29:22;;;;;;;;;;;;;;;18.48;58.87;98717.78;5115979;28;20209;-69
2022/04/14 10:31:54;;;;;;;;;;;;;;;18.65;57.91;98719.38;5103175;28;20243;-69
2022/04/14 10:34:21;;;;;;;;;;;;;;;18.77;54.09;98730.00;5095642;28;20337;-69
2022/04/14 10:36:50;;;;;;;;;;;;;;;18.66;51.88;98715.28;5095379;28;19951;-68
2022/04/14 10:39:18;;;;;;;;;;;;;;;18.75;51.79;98728.84;5095680;28;19948;-68
2022/04/14 10:41:48;;;;;;;;;;;;;;;18.59;53.47;98726.00;5097321;28;19960;-69
2022/04/14 10:44:19;;;;;;;;;;;;;;;18.64;55.34;98720.59;5099934;28;19955;-69
2022/04/14 10:46:48;;;;;;;;;;;;;;;18.71;51.37;98728.13;5099776;28;19950;-68
2022/04/14 10:49:25;;;;;;;;;;;;;;;18.87;56.07;98714.78;5100138;28;19966;-69
2022/04/14 10:51:57;;;;;;;;;;;;;;;18.81;51.10;98721.41;5082216;28;19955;-69
2022/04/14 10:54:24;;;;;;;;;;;;;;;18.83;48.32;98713.25;5099940;28;19948;-69
2022/04/14 10:56:52;;;;;;;;;;;;;;;18.87;48.94;98719.66;5098952;28;19950;-69
2022/04/14 10:59:21;;;;;;;;;;;;;;;18.64;45.60;98714.13;5099209;28;19962;-69
2022/04/14 11:01:50;;;;;;;;;;;;;;;18.64;45.27;98712.09;5099552;28;20470;-69
2022/04/14 11:04:20;;;;;;;;;;;;;;;18.65;46.46;98708.06;5099388;28;19978;-69
2022/04/14 11:06:48;;;;;;;;;;;;;;;18.71;49.25;98716.78;5081911;28;19953;-69
2022/04/14 11:09:34;;;;;;;;;;;;;;;18.61;43.35;98713.00;5099593;28;19946;-68
2022/04/14 11:12:03;;;;;;;;;;;;;;;18.51;45.10;98707.59;5099537;28;19946;-69
2022/04/14 11:14:34;;;;;;;;;;;;;;;18.53;46.18;98710.78;5099274;28;19952;-69
2022/04/14 11:17:03;;;;;;;;;;;;;;;18.54;45.38;98707.50;5098649;28;19950;-69
2022/04/14 11:19:30;;;;;;;;;;;;;;;18.58;46.24;98698.94;5099323;28;20599;-69
2022/04/14 11:22:08;;;;;;;;;;;;;;;18.78;48.42;98706.09;5099096;28;19945;-69
2022/04/14 11:24:35;;;;;;;;;;;;;;;18.77;45.77;98704.50;5099513;28;19954;-69
2022/04/14 11:27:15;;;;;;;;;;;;;;;18.76;47.51;98702.09;5098411;28;20239;-69
2022/04/14 11:29:47;;;;;;;;;;;;;;;18.93;48.26;98693.16;5098576;28;19952;-69
2022/04/14 11:32:15;;;;;;;;;;;;;;;18.84;44.06;98707.16;5098735;28;19950;-69
2022/04/14 11:35:06;;;;;;;;;;;;;;;18.78;44.10;98699.66;5098573;28;19954;-69
2022/04/14 11:37:40;;;;;;;;;;;;;;;18.78;43.40;98700.41;5098860;28;19955;-69
2022/04/14 11:40:12;;;;;;;;;;;;;;;18.75;45.63;98706.19;5098624;28;20375;-69
2022/04/14 11:42:40;;;;;;;;;;;;;;;18.81;45.08;98704.41;5098845;28;19954;-69
2022/04/14 11:45:07;;;;;;;;;;;;;;;18.71;47.24;98688.47;5098786;28;19946;-69
2022/04/14 11:47:36;;;;;;;;;;;;;;;18.70;49.10;98695.38;5098358;28;20242;-69
2022/04/14 11:50:03;;;;;;;;;;;;;;;18.67;46.57;98687.75;5098253;28;19948;-69
2022/04/14 11:52:32;;;;;;;;;;;;;;;18.69;46.31;98690.94;5097241;28;19949;-69
2022/04/14 11:55:00;;;;;;;;;;;;;;;18.71;44.44;98688.47;5098266;28;20255;-69
2022/04/14 11:57:31;;;;;;;;;;;;;;;18.72;42.94;98696.53;5098537;28;19951;-69
2022/04/14 12:00:10;;;;;;;;;;;;;;;18.76;44.96;98702.09;5098185;28;19946;-69
2022/04/14 12:02:37;;;;;;;;;;;;;;;18.83;42.16;98688.56;5080551;28;20302;-69
2022/04/14 12:05:05;;;;;;;;;;;;;;;18.88;46.29;98693.69;5097944;28;19950;-69
2022/04/14 12:07:34;;;;;;;;;;;;;;;18.80;43.63;98695.13;5098446;28;19946;-69
2022/04/14 12:10:06;;;;;;;;;;;;;;;18.91;40.89;98689.16;5098267;28;20244;-69
2022/04/14 12:12:35;;;;;;;;;;;;;;;18.90;42.64;98685.53;5098637;28;19950;-69
2022/04/14 12:15:03;;;;;;;;;;;;;;;18.80;44.08;98683.78;5097703;28;19959;-68
2022/04/14 12:17:30;;;;;;;;;;;;;;;18.96;47.53;98677.28;5097688;28;19962;-69
2022/04/14 12:19:59;;;;;;;;;;;;;;;19.13;44.79;98680.91;5098362;28;20239;-68
2022/04/14 12:22:34;;;;;;;;;;;;;;;19.32;41.11;98685.63;5112104;28;19950;-69
2022/04/14 12:25:03;;;;;;;;;;;;;;;19.01;40.43;98671.09;5117708;28;19954;-69
2022/04/14 12:27:34;;;;;;;;;;;;;;;19.25;39.88;98680.16;5118456;28;19948;-69
2022/04/14 12:30:09;;;;;;;;;;;;;;;19.17;42.88;98681.63;5118203;28;19945;-69
2022/04/14 12:32:36;;;;;;;;;;;;;;;19.35;48.36;98682.72;5117748;28;19955;-69
2022/04/14 12:35:08;;;;;;;;;;;;;;;19.46;43.09;98686.09;5117329;28;19949;-69
2022/04/14 12:37:39;;;;;;;;;;;;;;;19.49;43.33;98678.69;5118353;28;19949;-69
2022/04/14 12:40:14;;;;;;;;;;;;;;;19.34;42.01;98677.50;5117816;28;19953;-69
2022/04/14 12:42:42;;;;;;;;;;;;;;;19.46;42.88;98673.94;5118459;28;19945;-69
2022/04/14 12:45:14;;;;;;;;;;;;;;;19.40;41.68;98673.69;5117683;28;19961;-69
2022/04/14 12:47:42;;;;;;;;;;;;;;;19.33;42.34;98668.19;5117126;28;20257;-69
2022/04/14 12:50:10;;;;;;;;;;;;;;;19.31;41.91;98664.22;5116903;28;19960;-69
2022/04/14 12:52:37;;;;;;;;;;;;;;;19.45;43.92;98666.66;5117209;28;19964;-69
2022/04/14 12:55:05;;;;;;;;;;;;;;;19.45;41.48;98661.00;5116971;28;20255;-69
2022/04/14 12:57:33;;;;;;;;;;;;;;;19.30;41.76;98646.38;5117167;28;19943;-69
2022/04/14 13:00:11;;;;;;;;;;;;;;;19.33;43.14;98658.88;5116615;28;19957;-68
2022/04/14 13:02:39;;;;;;;;;;;;;;;19.32;41.80;98660.91;5117433;28;19977;-69
2022/04/14 13:05:11;;;;;;;;;;;;;;;19.33;44.91;98656.03;5116698;28;19949;-69
2022/04/14 13:07:46;;;;;;;;;;;;;;;19.36;44.21;98663.66;5118070;28;19945;-69
2022/04/14 13:10:13;;;;;;;;;;;;;;;19.36;43.65;98655.16;5116898;28;19951;-69
2022/04/14 13:12:44;;;;;;;;;;;;;;;19.46;44.65;98654.91;5116576;28;20284;-69
2022/04/14 13:15:15;;;;;;;;;;;;;;;19.44;41.37;98656.59;5116747;28;20240;-69
2022/04/14 13:17:43;;;;;;;;;;;;;;;19.43;42.35;98652.16;5116541;28;19945;-69
2022/04/14 13:20:12;;;;;;;;;;;;;;;19.29;43.14;98652.53;5116373;28;19983;-68
2022/04/14 13:22:40;;;;;;;;;;;;;;;19.34;44.06;98651.97;5116655;28;19957;-69
2022/04/14 13:25:07;;;;;;;;;;;;;;;19.29;43.08;98655.34;5116580;28;19979;-69
2022/04/14 13:27:34;;;;;;;;;;;;;;;19.36;41.19;98650.31;5116537;28;19953;-68
2022/04/14 13:30:02;;;;;;;;;;;;;;;19.24;43.05;98647.41;5116795;28;19949;-69
2022/04/14 13:32:30;;;;;;;;;;;;;;;19.25;41.05;98644.09;5116281;28;20307;-68
2022/04/14 13:34:57;;;;;;;;;;;;;;;19.38;40.61;98644.19;5117021;28;19944;-69
2022/04/14 13:37:24;;;;;;;;;;;;;;;19.37;40.16;98643.38;5116021;28;19981;-69
2022/04/14 13:39:51;;;;;;;;;;;;;;;19.32;43.72;98634.59;5115937;28;19948;-69
2022/04/14 13:42:19;;;;;;;;;;;;;;;19.28;41.23;98631.06;5116614;28;19944;-69
2022/04/14 13:44:46;;;;;;;;;;;;;;;19.31;46.29;98628.16;5116145;28;19954;-68
2022/04/14 13:47:13;;;;;;;;;;;;;;;19.29;41.74;98629.84;5116040;28;19949;-68
2022/04/14 13:49:40;;;;;;;;;;;;;;;19.26;42.46;98625.84;5115867;28;19960;-69
2022/04/14 13:52:08;;;;;;;;;;;;;;;19.42;41.23;98630.69;5116341;28;20361;-69
2022/04/14 13:54:35;;;;;;;;;;;;;;;19.44;41.27;98628.22;5116337;28;20530;-69
2022/04/14 13:57:03;;;;;;;;;;;;;;;19.40;40.64;98614.13;5115916;28;20240;-69
2022/04/14 13:59:30;;;;;;;;;;;;;;;19.44;42.17;98619.72;5115840;28;19961;-69
2022/04/14 14:01:57;;;;;;;;;;;;;;;19.34;41.78;98617.94;5115864;28;19948;-69
2022/04/14 14:04:25;;;;;;;;;;;;;;;19.35;43.87;98619.53;5115665;28;19981;-68
2022/04/14 14:06:52;;;;;;;;;;;;;;;19.36;41.34;98621.13;5115500;28;19949;-69
2022/04/14 14:09:19;;;;;;;;;;;;;;;19.32;42.45;98609.88;5115732;28;20376;-69
2022/04/14 14:11:47;;;;;;;;;;;;;;;19.49;43.95;98616.28;5115701;28;19965;-69
2022/04/14 14:14:16;;;;;;;;;;;;;;;19.57;41.68;98609.97;5116328;28;19943;-69
2022/04/14 14:16:44;;;;;;;;;;;;;;;19.52;45.25;98607.69;5116013;28;19946;-69
2022/04/14 14:19:11;;;;;;;;;;;;;;;19.63;42.25;98613.88;5115696;28;19950;-68
2022/04/14 14:21:39;;;;;;;;;;;;;;;19.58;39.74;98610.78;5116417;28;19942;-69
2022/04/14 14:24:06;;;;;;;;;;;;;;;19.52;39.92;98601.22;5115365;28;19957;-69
2022/04/14 14:26:34;;;;;;;;;;;;;;;19.51;41.87;98605.31;5097631;28;19947;-69
2022/04/14 14:29:01;;;;;;;;;;;;;;;19.49;40.04;98602.09;5116446;28;19950;-69
2022/04/14 14:31:28;;;;;;;;;;;;;;;19.45;41.13;98595.75;5115863;28;19967;-68
2022/04/14 14:33:56;;;;;;;;;;;;;;;19.58;41.10;98600.22;5115452;28;19951;-69
2022/04/14 14:36:23;;;;;;;;;;;;;;;19.48;41.52;98592.84;5105331;28;19951;-69
2022/04/14 14:38:50;;;;;;;;;;;;;;;19.66;41.80;98595.91;5095727;28;19955;-69
2022/04/14 14:41:21;;;;;;;;;;;;;;;19.58;41.92;98599.44;5095175;28;19980;-69
2022/04/14 14:43:48;;;;;;;;;;;;;;;19.61;42.12;98592.88;5095613;28;20327;-69
2022/04/14 14:46:21;;;;;;;;;;;;;;;19.51;43.23;98591.13;5095927;28;20248;-69
2022/04/14 14:48:49;;;;;;;;;;;;;;;19.43;43.29;98586.91;5095668;28;19956;-69
2022/04/14 14:51:16;;;;;;;;;;;;;;;19.38;43.92;98591.09;5095262;28;19957;-69
2022/04/14 14:53:43;;;;;;;;;;;;;;;19.37;43.62;98591.53;5095828;28;19946;-69